createdAt,value
2018-11-12T00:01:40.664Z,13.80
2018-11-12T00:06:43.294Z,13.50
2018-11-12T00:11:45.854Z,13.70
2018-11-12T00:16:48.438Z,13.70
2018-11-12T00:21:51.119Z,13.70
2018-11-12T00:26:53.708Z,13.70
2018-11-12T00:31:56.279Z,13.70
2018-11-12T00:36:58.836Z,14.80
2018-11-12T00:42:01.422Z,13.70
2018-11-12T00:47:04.028Z,13.70
2018-11-12T00:52:07.767Z,14.50
2018-11-12T00:57:10.312Z,13.60
2018-11-12T01:02:12.888Z,13.50
2018-11-12T01:07:15.470Z,13.60
2018-11-12T01:12:18.142Z,13.70
2018-11-12T01:17:20.696Z,13.80
2018-11-12T01:22:23.244Z,13.70
2018-11-12T01:27:25.822Z,13.80
2018-11-12T01:32:28.688Z,13.50
2018-11-12T01:37:31.235Z,13.50
2018-11-12T01:42:33.806Z,13.40
2018-11-12T01:47:36.455Z,13.90
2018-11-12T01:52:39.212Z,13.70
2018-11-12T01:57:42.012Z,13.60
2018-11-12T02:02:45.984Z,13.50
2018-11-12T02:07:48.616Z,13.50
2018-11-12T02:12:51.209Z,13.30
2018-11-12T02:17:53.748Z,13.30
2018-11-12T02:22:56.306Z,13.30
2018-11-12T02:27:59.694Z,13.10
2018-11-12T02:33:02.299Z,13.00
2018-11-12T02:38:04.863Z,12.60
2018-11-12T02:43:07.672Z,12.70
2018-11-12T02:48:10.230Z,12.80
2018-11-12T02:53:12.812Z,13.00
2018-11-12T02:58:15.356Z,13.10
2018-11-12T03:03:17.920Z,13.20
2018-11-12T03:08:20.511Z,13.20
2018-11-12T03:13:23.062Z,13.40
2018-11-12T03:18:25.600Z,13.50
2018-11-12T03:23:28.160Z,14.10
2018-11-12T03:28:30.702Z,13.30
2018-11-12T03:33:33.261Z,13.30
2018-11-12T03:38:35.812Z,13.20
2018-11-12T03:43:38.366Z,13.10
2018-11-12T03:48:41.021Z,12.90
2018-11-12T03:53:43.592Z,12.90
2018-11-12T03:58:46.813Z,13.00
2018-11-12T04:03:49.356Z,13.00
2018-11-12T04:08:51.908Z,13.00
2018-11-12T04:13:54.448Z,13.20
2018-11-12T04:18:57.004Z,13.10
2018-11-12T04:23:59.608Z,13.00
2018-11-12T04:29:02.478Z,12.90
2018-11-12T04:34:05.233Z,12.70
2018-11-12T04:39:08.835Z,12.40
2018-11-12T04:44:11.851Z,11.60
2018-11-12T04:49:14.421Z,10.80
2018-11-12T04:54:17.000Z,10.30
2018-11-12T04:59:19.577Z,9.90
2018-11-12T05:04:22.789Z,9.60
2018-11-12T05:09:25.400Z,9.30
2018-11-12T05:14:27.953Z,9.20
2018-11-12T05:19:31.263Z,9.00
2018-11-12T05:24:33.833Z,8.80
2018-11-12T05:29:36.409Z,8.70
2018-11-12T05:34:39.009Z,8.70
2018-11-12T05:39:41.548Z,8.50
2018-11-12T05:44:44.140Z,8.50
2018-11-12T05:49:46.811Z,8.30
2018-11-12T05:54:49.480Z,8.40
2018-11-12T05:59:52.025Z,8.80
2018-11-12T06:04:54.669Z,9.20
2018-11-12T06:09:57.182Z,9.50
2018-11-12T06:14:59.716Z,9.60
2018-11-12T06:20:02.296Z,9.50
2018-11-12T06:25:05.863Z,9.40
2018-11-12T06:30:11.753Z,9.60
2018-11-12T06:35:14.869Z,10.30
2018-11-12T06:40:19.621Z,10.60
2018-11-12T06:45:27.364Z,10.80
2018-11-12T06:50:31.215Z,10.90
2018-11-12T06:55:33.882Z,11.80
2018-11-12T07:00:36.455Z,12.90
2018-11-12T07:05:39.007Z,13.00
2018-11-12T07:10:41.621Z,12.20
2018-11-12T07:15:44.171Z,11.70
2018-11-12T07:20:46.861Z,11.50
2018-11-12T07:25:49.444Z,11.50
2018-11-12T07:30:52.165Z,11.70
2018-11-12T07:35:54.624Z,11.80
2018-11-12T07:40:57.202Z,11.90
2018-11-12T07:45:59.759Z,12.00
2018-11-12T07:51:02.341Z,12.20
2018-11-12T07:56:04.997Z,13.20
2018-11-12T08:01:07.541Z,15.00
2018-11-12T08:06:10.113Z,15.70
2018-11-12T08:11:12.981Z,17.00
2018-11-12T08:16:15.575Z,18.60
2018-11-12T08:21:18.216Z,19.00
2018-11-12T08:26:20.809Z,19.70
2018-11-12T08:31:23.516Z,21.70
2018-11-12T08:36:26.124Z,22.60
2018-11-12T08:41:28.609Z,23.20
2018-11-12T08:46:31.192Z,22.00
2018-11-12T08:51:33.760Z,21.30
2018-11-12T08:56:36.333Z,22.10
2018-11-12T09:01:38.978Z,22.30
2018-11-12T09:06:41.567Z,23.70
2018-11-12T09:11:44.132Z,24.10
2018-11-12T09:16:46.735Z,25.20
2018-11-12T09:21:49.292Z,25.60
2018-11-12T09:26:51.893Z,25.30
2018-11-12T09:31:54.491Z,26.10
2018-11-12T09:36:57.045Z,27.30
2018-11-12T09:41:59.625Z,26.40
2018-11-12T09:47:02.167Z,27.30
2018-11-12T09:52:05.347Z,27.00
2018-11-12T09:57:08.189Z,25.90
2018-11-12T10:02:11.241Z,23.70
2018-11-12T10:07:15.271Z,22.70
2018-11-12T10:12:18.640Z,23.60
2018-11-12T10:17:21.711Z,24.70
2018-11-12T10:22:21.316Z,25.20
2018-11-12T10:27:24.089Z,26.10
2018-11-12T10:32:26.686Z,23.90
2018-11-12T10:37:29.234Z,21.60
2018-11-12T10:42:31.858Z,21.00
2018-11-12T10:47:34.435Z,21.30
2018-11-12T10:52:37.106Z,22.80
2018-11-12T10:57:40.360Z,22.30
2018-11-12T11:02:48.735Z,20.70
2018-11-12T11:07:52.832Z,20.00
2018-11-12T11:12:56.464Z,19.50
2018-11-12T11:17:59.236Z,18.70
2018-11-12T11:23:02.040Z,19.20
2018-11-12T11:28:04.953Z,18.10
2018-11-12T11:33:07.505Z,18.00
2018-11-12T11:38:10.180Z,18.10
2018-11-12T11:43:12.748Z,18.60
2018-11-12T11:48:15.550Z,18.60
2018-11-12T11:53:18.017Z,20.00
2018-11-12T11:58:20.568Z,19.30
2018-11-12T12:03:23.210Z,18.20
2018-11-12T12:08:25.876Z,18.20
2018-11-12T12:13:28.535Z,19.40
2018-11-12T12:18:31.266Z,17.90
2018-11-12T12:23:34.612Z,17.70
2018-11-12T12:28:39.292Z,17.50
2018-11-12T12:33:43.229Z,17.90
2018-11-12T12:38:45.781Z,18.50
2018-11-12T12:43:48.361Z,18.20
2018-11-12T12:48:50.937Z,18.10
2018-11-12T12:53:53.579Z,18.20
2018-11-12T12:58:56.179Z,18.30
2018-11-12T13:03:59.276Z,18.20
2018-11-12T13:09:01.809Z,18.20
2018-11-12T13:14:04.518Z,17.90
2018-11-12T13:19:07.045Z,17.90
2018-11-12T13:24:09.620Z,17.90
2018-11-12T13:29:12.176Z,18.00
2018-11-12T13:34:14.739Z,18.10
2018-11-12T13:39:17.327Z,18.10
2018-11-12T13:44:19.818Z,18.80
2018-11-12T13:49:22.403Z,19.20
2018-11-12T13:54:24.974Z,19.30
2018-11-12T13:59:27.527Z,20.50
2018-11-12T14:04:30.148Z,22.50
2018-11-12T14:09:32.740Z,22.50
2018-11-12T14:14:35.319Z,22.00
2018-11-12T14:19:37.955Z,23.10
2018-11-12T14:24:40.499Z,25.70
2018-11-12T14:29:43.062Z,23.20
2018-11-12T14:34:45.629Z,20.50
2018-11-12T14:39:48.425Z,19.60
2018-11-12T14:44:50.975Z,20.90
2018-11-12T14:49:53.641Z,19.10
2018-11-12T14:54:56.268Z,19.50
2018-11-12T14:59:59.220Z,19.10
2018-11-12T15:05:01.837Z,18.40
2018-11-12T15:10:06.532Z,17.70
2018-11-12T15:15:10.089Z,17.10
2018-11-12T15:20:14.547Z,16.50
2018-11-12T15:25:18.774Z,16.10
2018-11-12T15:30:22.757Z,15.80
2018-11-12T15:35:25.461Z,15.50
2018-11-12T15:40:28.024Z,15.30
2018-11-12T15:45:30.584Z,15.20
2018-11-12T15:50:34.746Z,14.80
2018-11-12T15:55:37.348Z,14.70
2018-11-12T16:00:39.935Z,14.50
2018-11-12T16:05:42.550Z,14.30
2018-11-12T16:10:45.117Z,14.10
2018-11-12T16:15:47.743Z,14.10
2018-11-12T16:20:50.448Z,14.10
2018-11-12T16:25:53.143Z,14.00
2018-11-12T16:30:55.692Z,15.10
2018-11-12T16:35:58.258Z,13.70
2018-11-12T16:41:00.815Z,13.80
2018-11-12T16:46:04.125Z,13.80
2018-11-12T16:51:06.682Z,13.70
2018-11-12T16:56:09.251Z,14.00
2018-11-12T17:01:11.827Z,13.90
2018-11-12T17:06:15.009Z,13.70
2018-11-12T17:11:17.624Z,13.60
2018-11-12T17:16:20.176Z,13.50
2018-11-12T17:21:22.762Z,13.30
2018-11-12T17:26:25.347Z,13.20
2018-11-12T17:31:28.402Z,13.20
2018-11-12T17:36:31.065Z,13.40
2018-11-12T17:41:33.669Z,13.50
2018-11-12T17:46:37.173Z,13.50
2018-11-12T17:51:40.833Z,13.30
2018-11-12T17:56:45.455Z,14.20
2018-11-12T18:01:48.203Z,12.90
2018-11-12T18:06:50.779Z,13.00
2018-11-12T18:11:53.377Z,14.10
2018-11-12T18:16:56.163Z,13.50
2018-11-12T18:21:58.988Z,13.50
2018-11-12T18:27:02.232Z,13.30
2018-11-12T18:32:05.502Z,13.20
2018-11-12T18:37:08.048Z,13.40
2018-11-12T18:42:11.455Z,13.80
2018-11-12T18:47:14.072Z,15.60
2018-11-12T18:52:16.692Z,14.50
2018-11-12T18:57:19.389Z,14.70
2018-11-12T19:02:21.984Z,15.00
2018-11-12T19:07:25.145Z,15.10
2018-11-12T19:12:27.710Z,16.00
2018-11-12T19:17:30.302Z,16.10
2018-11-12T19:22:33.956Z,15.30
2018-11-12T19:27:36.569Z,15.30
2018-11-12T19:32:39.159Z,15.20
2018-11-12T19:37:41.761Z,15.20
2018-11-12T19:42:45.305Z,15.10
2018-11-12T19:47:49.019Z,15.90
2018-11-12T19:52:52.937Z,14.90
2018-11-12T19:57:55.574Z,14.80
2018-11-12T20:02:59.831Z,14.90
2018-11-12T20:08:02.445Z,14.60
2018-11-12T20:13:06.127Z,15.10
2018-11-12T20:18:09.462Z,15.00
2018-11-12T20:23:12.120Z,14.60
2018-11-12T20:28:15.693Z,14.30
2018-11-12T20:33:18.311Z,15.30
2018-11-12T20:38:21.892Z,13.90
2018-11-12T20:43:24.475Z,14.00
2018-11-12T20:48:27.036Z,14.00
2018-11-12T20:53:29.589Z,14.10
2018-11-12T20:58:32.140Z,14.70
2018-11-12T21:03:35.264Z,14.30
2018-11-12T21:08:37.834Z,14.20
2018-11-12T21:13:40.485Z,14.40
2018-11-12T21:18:43.051Z,14.60
2018-11-12T21:23:45.688Z,14.60
2018-11-12T21:28:48.346Z,14.70
2018-11-12T21:33:50.868Z,14.70
2018-11-12T21:38:54.060Z,14.70
2018-11-12T21:43:56.751Z,14.70
2018-11-12T21:48:59.581Z,14.70
2018-11-12T21:54:02.489Z,14.60
2018-11-12T21:59:06.465Z,14.60
2018-11-12T22:04:09.036Z,14.70
2018-11-12T22:09:11.601Z,14.70
2018-11-12T22:14:14.275Z,14.80
2018-11-12T22:19:18.776Z,14.90
2018-11-12T22:24:21.369Z,14.90
2018-11-12T22:29:24.189Z,15.00
2018-11-12T22:34:26.904Z,15.10
2018-11-12T22:39:29.471Z,14.90
2018-11-12T22:44:32.140Z,14.90
2018-11-12T22:49:34.707Z,16.30
2018-11-12T22:54:37.295Z,14.90
2018-11-12T22:59:39.885Z,15.00
2018-11-12T23:04:42.515Z,16.00
2018-11-12T23:09:45.081Z,15.00
2018-11-12T23:14:47.638Z,15.00
2018-11-12T23:19:50.230Z,15.00
2018-11-12T23:24:52.851Z,15.00
2018-11-12T23:29:55.416Z,15.20
2018-11-12T23:34:58.008Z,15.30
2018-11-12T23:40:00.590Z,15.30
2018-11-12T23:45:03.600Z,15.40
2018-11-12T23:50:11.732Z,15.40
2018-11-12T23:55:14.557Z,15.30
